createdAt,value
2023-02-04T00:01:18.722Z,350
2023-02-04T00:02:19.101Z,359
2023-02-04T00:04:18.296Z,369
2023-02-04T00:05:18.669Z,366
2023-02-04T00:06:18.896Z,365
2023-02-04T00:07:18.411Z,365
2023-02-04T00:08:18.410Z,349
2023-02-04T00:13:18.340Z,353
2023-02-04T00:14:18.535Z,344
2023-02-04T00:15:19.111Z,349
2023-02-04T00:16:18.234Z,349
2023-02-04T00:18:18.563Z,357
2023-02-04T00:19:18.494Z,358
2023-02-04T00:20:18.946Z,364
2023-02-04T00:21:18.559Z,359
2023-02-04T00:23:18.810Z,361
2023-02-04T00:24:18.464Z,361
2023-02-04T00:25:18.626Z,354
2023-02-04T00:26:18.783Z,349
2023-02-04T00:28:16.043Z,350
2023-02-04T00:29:18.530Z,348
2023-02-04T00:30:18.684Z,363
2023-02-04T00:33:18.119Z,363
2023-02-04T00:34:18.512Z,357
2023-02-04T00:35:18.770Z,361
2023-02-04T00:37:18.681Z,357
2023-02-04T00:38:19.014Z,356
2023-02-04T00:39:18.313Z,360
2023-02-04T00:42:19.056Z,366
2023-02-04T00:43:18.459Z,351
2023-02-04T00:46:18.704Z,344
2023-02-04T00:47:18.476Z,343
2023-02-04T00:48:18.205Z,343
2023-02-04T00:50:18.578Z,348
2023-02-04T00:51:18.685Z,346
2023-02-04T00:52:18.661Z,349
2023-02-04T00:53:18.328Z,354
2023-02-04T00:56:18.717Z,357
2023-02-04T00:59:18.048Z,351
2023-02-04T01:00:19.787Z,357
2023-02-04T01:02:18.648Z,359
2023-02-04T01:04:18.360Z,352
2023-02-04T01:06:18.328Z,351
2023-02-04T01:08:18.556Z,354
2023-02-04T01:09:18.581Z,362
2023-02-04T01:11:18.182Z,351
2023-02-04T01:12:18.039Z,348
2023-02-04T01:13:17.755Z,349
2023-02-04T01:14:18.491Z,349
2023-02-04T01:15:18.638Z,348
2023-02-04T01:17:18.184Z,345
2023-02-04T01:18:17.654Z,350
2023-02-04T01:19:18.193Z,344
2023-02-04T01:21:17.934Z,350
2023-02-04T01:22:18.628Z,353
2023-02-04T01:23:18.017Z,353
2023-02-04T01:24:18.228Z,354
2023-02-04T01:26:18.226Z,348
2023-02-04T01:27:18.501Z,357
2023-02-04T01:28:17.789Z,357
2023-02-04T01:32:18.012Z,355
2023-02-04T01:33:18.442Z,355
2023-02-04T01:35:18.140Z,354
2023-02-04T01:36:18.477Z,359
2023-02-04T01:38:17.651Z,361
2023-02-04T01:39:17.612Z,355
2023-02-04T01:40:18.157Z,352
2023-02-04T01:41:18.075Z,351
2023-02-04T01:42:18.130Z,347
2023-02-04T01:44:17.507Z,349
2023-02-04T01:45:18.165Z,350
2023-02-04T01:46:18.436Z,357
2023-02-04T01:47:18.015Z,357
2023-02-04T01:48:18.258Z,354
2023-02-04T01:49:18.277Z,351
2023-02-04T01:50:18.678Z,351
2023-02-04T01:51:17.661Z,351
2023-02-04T01:53:17.996Z,350
2023-02-04T01:54:18.090Z,352
2023-02-04T01:55:17.693Z,360
2023-02-04T01:56:18.088Z,359
2023-02-04T01:57:18.060Z,357
2023-02-04T01:58:18.396Z,354
2023-02-04T01:59:17.666Z,356
2023-02-04T02:00:19.143Z,358
2023-02-04T02:02:22.937Z,351
2023-02-04T02:03:18.266Z,354
2023-02-04T02:04:23.153Z,364
2023-02-04T02:05:18.533Z,358
2023-02-04T02:08:17.884Z,362
2023-02-04T02:11:18.324Z,358
2023-02-04T02:12:18.036Z,355
2023-02-04T02:13:18.447Z,355
2023-02-04T02:14:18.088Z,351
2023-02-04T02:16:18.646Z,355
2023-02-04T02:17:18.987Z,356
2023-02-04T02:18:18.478Z,355
2023-02-04T02:19:18.301Z,355
2023-02-04T02:20:18.813Z,363
2023-02-04T02:21:18.233Z,363
2023-02-04T02:22:19.089Z,346
2023-02-04T02:23:18.444Z,361
2023-02-04T02:25:18.653Z,370
2023-02-04T02:27:18.645Z,357
2023-02-04T02:30:18.286Z,354
2023-02-04T02:31:18.085Z,354
2023-02-04T02:32:17.765Z,351
2023-02-04T02:34:18.304Z,365
2023-02-04T02:36:18.324Z,359
2023-02-04T02:37:17.415Z,359
2023-02-04T02:38:17.774Z,349
2023-02-04T02:40:18.388Z,350
2023-02-04T02:43:17.730Z,337
2023-02-04T02:44:17.892Z,344
2023-02-04T02:45:18.360Z,353
2023-02-04T02:46:18.213Z,353
2023-02-04T02:47:17.733Z,346
2023-02-04T02:48:18.021Z,348
2023-02-04T02:49:18.401Z,361
2023-02-04T02:51:18.196Z,353
2023-02-04T02:52:18.350Z,352
2023-02-04T02:53:17.500Z,346
2023-02-04T02:54:17.349Z,351
2023-02-04T02:56:18.311Z,351
2023-02-04T02:57:18.473Z,357
2023-02-04T02:58:18.582Z,352
2023-02-04T02:59:18.020Z,352
2023-02-04T03:00:19.479Z,348
2023-02-04T03:01:17.764Z,348
2023-02-04T03:02:18.027Z,352
2023-02-04T03:03:17.916Z,353
2023-02-04T03:05:18.623Z,346
2023-02-04T03:06:17.769Z,359
2023-02-04T03:07:17.451Z,356
2023-02-04T03:08:17.504Z,350
2023-02-04T03:09:17.684Z,363
2023-02-04T03:10:18.272Z,362
2023-02-04T03:11:18.011Z,367
2023-02-04T03:14:17.523Z,365
2023-02-04T03:15:17.973Z,363
2023-02-04T03:16:18.593Z,363
2023-02-04T03:17:18.069Z,363
2023-02-04T03:18:17.868Z,360
2023-02-04T03:19:18.062Z,358
2023-02-04T03:20:18.459Z,355
2023-02-04T03:21:18.089Z,352
2023-02-04T03:23:18.084Z,355
2023-02-04T03:24:18.518Z,348
2023-02-04T03:27:18.245Z,356
2023-02-04T03:28:18.243Z,360
2023-02-04T03:29:18.652Z,367
2023-02-04T03:32:18.014Z,353
2023-02-04T03:33:18.702Z,372
2023-02-04T03:34:18.659Z,373
2023-02-04T03:36:17.855Z,360
2023-02-04T03:37:18.651Z,347
2023-02-04T03:38:19.877Z,356
2023-02-04T03:39:17.997Z,362
2023-02-04T03:41:18.395Z,361
2023-02-04T03:42:17.472Z,354
2023-02-04T03:43:18.270Z,359
2023-02-04T03:45:18.213Z,365
2023-02-04T03:46:18.796Z,364
2023-02-04T03:47:18.758Z,359
2023-02-04T03:49:18.585Z,349
2023-02-04T03:51:18.579Z,366
2023-02-04T03:52:17.987Z,361
2023-02-04T03:54:17.539Z,358
2023-02-04T03:55:17.899Z,355
2023-02-04T03:56:17.925Z,357
2023-02-04T03:58:17.737Z,349
2023-02-04T03:59:17.729Z,356
2023-02-04T04:01:17.753Z,361
2023-02-04T04:03:17.764Z,351
2023-02-04T04:04:18.209Z,350
2023-02-04T04:07:18.289Z,352
2023-02-04T04:08:18.716Z,364
2023-02-04T04:09:17.929Z,364
2023-02-04T04:12:17.576Z,361
2023-02-04T04:15:18.840Z,352
2023-02-04T04:16:18.819Z,352
2023-02-04T04:17:18.163Z,347
2023-02-04T04:19:17.923Z,357
2023-02-04T04:20:18.318Z,367
2023-02-04T04:21:18.004Z,365
2023-02-04T04:22:18.556Z,352
2023-02-04T04:23:17.818Z,352
2023-02-04T04:24:18.602Z,363
2023-02-04T04:25:18.281Z,363
2023-02-04T04:26:18.465Z,360
2023-02-04T04:27:17.769Z,357
2023-02-04T04:29:17.793Z,356
2023-02-04T04:30:18.901Z,359
2023-02-04T04:31:19.060Z,352
2023-02-04T04:33:18.274Z,357
2023-02-04T04:34:18.389Z,354
2023-02-04T04:35:19.062Z,366
2023-02-04T04:37:18.482Z,362
2023-02-04T04:39:18.932Z,364
2023-02-04T04:40:18.832Z,357
2023-02-04T04:43:18.813Z,355
2023-02-04T04:44:18.339Z,352
2023-02-04T04:45:19.050Z,345
2023-02-04T04:46:17.810Z,345
2023-02-04T04:47:18.802Z,361
2023-02-04T04:48:17.951Z,361
2023-02-04T04:51:19.415Z,356
2023-02-04T04:52:18.837Z,352
2023-02-04T04:53:18.207Z,361
2023-02-04T04:56:18.370Z,360
2023-02-04T04:57:18.487Z,361
2023-02-04T04:59:18.816Z,363
2023-02-04T05:00:20.341Z,359
2023-02-04T05:03:18.682Z,363
2023-02-04T05:04:18.517Z,363
2023-02-04T05:05:18.816Z,356
2023-02-04T05:06:18.668Z,363
2023-02-04T05:08:18.138Z,356
2023-02-04T05:09:18.511Z,374
2023-02-04T05:10:18.899Z,373
2023-02-04T05:12:18.428Z,357
2023-02-04T05:13:17.780Z,369
2023-02-04T05:14:18.120Z,369
2023-02-04T05:15:18.993Z,358
2023-02-04T05:16:18.718Z,356
2023-02-04T05:18:18.550Z,367
2023-02-04T05:20:17.884Z,364
2023-02-04T05:22:18.126Z,366
2023-02-04T05:23:18.467Z,354
2023-02-04T05:24:18.238Z,347
2023-02-04T05:26:29.501Z,362
2023-02-04T05:27:17.981Z,362
2023-02-04T05:30:18.849Z,359
2023-02-04T05:31:18.466Z,346
2023-02-04T05:32:18.662Z,359
2023-02-04T05:34:18.329Z,360
2023-02-04T05:35:18.950Z,353
2023-02-04T05:38:18.216Z,351
2023-02-04T05:39:17.911Z,350
2023-02-04T05:40:17.416Z,366
2023-02-04T05:41:18.565Z,361
2023-02-04T05:43:17.952Z,349
2023-02-04T05:44:18.623Z,352
2023-02-04T05:45:18.555Z,357
2023-02-04T05:47:18.260Z,361
2023-02-04T05:48:17.769Z,352
2023-02-04T05:49:17.926Z,360
2023-02-04T05:50:18.840Z,356
2023-02-04T05:52:18.764Z,363
2023-02-04T05:53:18.240Z,363
2023-02-04T05:54:18.287Z,357
2023-02-04T05:56:18.576Z,360
2023-02-04T05:58:18.401Z,362
2023-02-04T05:59:18.497Z,366
2023-02-04T06:01:18.930Z,367
2023-02-04T06:02:19.052Z,360
2023-02-04T06:03:18.809Z,361
2023-02-04T06:06:17.780Z,366
2023-02-04T06:07:18.497Z,358
2023-02-04T06:08:18.570Z,361
2023-02-04T06:10:18.574Z,369
2023-02-04T06:11:17.993Z,362
2023-02-04T06:12:18.434Z,376
2023-02-04T06:14:18.649Z,375
2023-02-04T06:16:18.011Z,371
2023-02-04T06:17:18.353Z,372
2023-02-04T06:18:18.195Z,361
2023-02-04T06:20:19.095Z,375
2023-02-04T06:21:18.050Z,374
2023-02-04T06:22:17.850Z,374
2023-02-04T06:23:18.819Z,375
2023-02-04T06:24:18.927Z,369
2023-02-04T06:25:19.171Z,364
2023-02-04T06:27:18.915Z,355
2023-02-04T06:28:18.199Z,363
2023-02-04T06:29:17.964Z,365
2023-02-04T06:30:18.433Z,354
2023-02-04T06:32:18.115Z,355
2023-02-04T06:33:18.121Z,351
2023-02-04T06:34:18.517Z,355
2023-02-04T06:36:19.081Z,365
2023-02-04T06:37:18.252Z,365
2023-02-04T06:38:18.104Z,364
2023-02-04T06:39:18.075Z,358
2023-02-04T06:41:18.397Z,365
2023-02-04T06:42:18.380Z,362
2023-02-04T06:44:18.522Z,375
2023-02-04T06:45:18.212Z,370
2023-02-04T06:46:18.222Z,380
2023-02-04T06:47:18.611Z,369
2023-02-04T06:49:18.068Z,375
2023-02-04T06:50:19.120Z,363
2023-02-04T06:51:18.566Z,361
2023-02-04T06:53:19.014Z,368
2023-02-04T06:54:18.661Z,371
2023-02-04T06:55:18.830Z,353
2023-02-04T06:56:18.972Z,358
2023-02-04T06:58:19.113Z,370
2023-02-04T06:59:18.291Z,370
2023-02-04T07:00:24.825Z,357
2023-02-04T07:02:18.513Z,360
2023-02-04T07:04:18.466Z,368
2023-02-04T07:06:18.840Z,357
2023-02-04T07:07:18.970Z,364
2023-02-04T07:08:18.312Z,364
2023-02-04T07:09:18.330Z,361
2023-02-04T07:11:19.170Z,364
2023-02-04T07:12:31.818Z,369
2023-02-04T07:15:19.220Z,368
2023-02-04T07:16:18.320Z,368
2023-02-04T07:17:18.551Z,373
2023-02-04T07:18:18.262Z,373
2023-02-04T07:19:20.241Z,361
2023-02-04T07:20:18.393Z,368
2023-02-04T07:21:18.040Z,362
2023-02-04T07:22:19.202Z,376
2023-02-04T07:24:18.206Z,363
2023-02-04T07:25:18.546Z,364
2023-02-04T07:26:18.042Z,361
2023-02-04T07:27:18.789Z,364
2023-02-04T07:29:24.939Z,369
2023-02-04T07:31:18.923Z,373
2023-02-04T07:32:18.391Z,366
2023-02-04T07:33:18.233Z,365
2023-02-04T07:34:18.481Z,356
2023-02-04T07:35:18.212Z,360
2023-02-04T07:37:19.456Z,362
2023-02-04T07:38:18.496Z,359
2023-02-04T07:39:19.171Z,368
2023-02-04T07:42:18.664Z,355
2023-02-04T07:43:18.565Z,360
2023-02-04T07:44:18.678Z,356
2023-02-04T07:46:18.012Z,361
2023-02-04T07:47:18.675Z,357
2023-02-04T07:48:19.472Z,369
2023-02-04T07:49:18.894Z,367
2023-02-04T07:50:18.247Z,367
2023-02-04T07:51:18.803Z,377
2023-02-04T07:52:18.718Z,368
2023-02-04T07:53:18.770Z,366
2023-02-04T07:55:18.771Z,367
2023-02-04T07:56:18.880Z,372
2023-02-04T07:57:20.413Z,369
2023-02-04T07:59:18.119Z,366
2023-02-04T08:00:19.206Z,353
2023-02-04T08:01:18.906Z,357
2023-02-04T08:03:18.353Z,371
2023-02-04T08:04:18.958Z,377
2023-02-04T08:05:18.853Z,378
2023-02-04T08:07:18.812Z,371
2023-02-04T08:08:18.785Z,372
2023-02-04T08:09:19.223Z,370
2023-02-04T08:10:18.876Z,371
2023-02-04T08:11:18.670Z,364
2023-02-04T08:14:18.496Z,368
2023-02-04T08:16:18.555Z,366
2023-02-04T08:17:18.822Z,368
2023-02-04T08:18:18.677Z,369
2023-02-04T08:19:18.409Z,372
2023-02-04T08:21:19.446Z,371
2023-02-04T08:22:18.895Z,372
2023-02-04T08:25:19.235Z,382
2023-02-04T08:26:18.952Z,378
2023-02-04T08:27:18.292Z,378
2023-02-04T08:28:18.710Z,371
2023-02-04T08:30:19.482Z,366
2023-02-04T08:31:18.756Z,366
2023-02-04T08:32:18.511Z,364
2023-02-04T08:33:18.767Z,355
2023-02-04T08:35:19.330Z,368
2023-02-04T08:36:18.790Z,363
2023-02-04T08:37:18.974Z,367
2023-02-04T08:38:18.182Z,367
2023-02-04T08:39:18.776Z,364
2023-02-04T08:40:20.425Z,363
2023-02-04T08:41:18.689Z,365
2023-02-04T08:42:18.674Z,371
2023-02-04T08:43:19.466Z,369
2023-02-04T08:44:18.880Z,369
2023-02-04T08:45:20.041Z,358
2023-02-04T08:46:20.087Z,360
2023-02-04T08:47:19.406Z,361
2023-02-04T08:48:19.724Z,376
2023-02-04T08:50:20.558Z,368
2023-02-04T08:51:19.557Z,365
2023-02-04T08:52:19.804Z,362
2023-02-04T08:53:20.035Z,363
2023-02-04T08:54:20.341Z,354
2023-02-04T08:55:20.149Z,362
2023-02-04T08:56:19.982Z,358
2023-02-04T08:58:18.843Z,368
2023-02-04T08:59:19.257Z,374
2023-02-04T09:00:20.109Z,364
2023-02-04T09:03:19.143Z,366
2023-02-04T09:04:18.709Z,371
2023-02-04T09:05:19.237Z,366
2023-02-04T09:06:19.679Z,363
2023-02-04T09:09:21.637Z,370
2023-02-04T09:10:18.633Z,365
2023-02-04T09:11:19.277Z,367
2023-02-04T09:12:19.404Z,370
2023-02-04T09:13:19.659Z,363
2023-02-04T09:14:18.829Z,366
2023-02-04T09:15:19.857Z,369
2023-02-04T09:17:19.158Z,363
2023-02-04T09:18:19.512Z,359
2023-02-04T09:19:19.297Z,360
2023-02-04T09:20:20.258Z,367
2023-02-04T09:23:19.348Z,353
2023-02-04T09:24:19.038Z,367
2023-02-04T09:26:18.789Z,373
2023-02-04T09:27:23.698Z,355
2023-02-04T09:29:19.119Z,354
2023-02-04T09:30:19.122Z,366
2023-02-04T09:32:19.148Z,362
2023-02-04T09:33:18.468Z,362
2023-02-04T09:34:18.275Z,348
2023-02-04T09:35:19.537Z,362
2023-02-04T09:36:19.474Z,351
2023-02-04T09:37:18.616Z,351
2023-02-04T09:38:19.451Z,356
2023-02-04T09:39:18.851Z,357
2023-02-04T09:42:19.388Z,357
2023-02-04T09:43:20.073Z,358
2023-02-04T09:44:20.125Z,364
2023-02-04T09:45:20.430Z,360
2023-02-04T09:46:19.272Z,358
2023-02-04T09:47:19.515Z,363
2023-02-04T09:48:18.468Z,363
2023-02-04T09:52:18.816Z,368
2023-02-04T09:53:19.249Z,360
2023-02-04T09:56:19.198Z,355
2023-02-04T09:57:19.863Z,356
2023-02-04T09:58:19.568Z,361
2023-02-04T09:59:19.139Z,356
2023-02-04T10:00:20.424Z,365
2023-02-04T10:02:19.684Z,374
2023-02-04T10:03:38.784Z,369
2023-02-04T10:05:22.400Z,356
2023-02-04T10:06:19.606Z,354
2023-02-04T10:07:19.732Z,357
2023-02-04T10:08:20.100Z,358
2023-02-04T10:10:19.794Z,359
2023-02-04T10:11:19.283Z,359
2023-02-04T10:12:18.286Z,364
2023-02-04T10:13:19.043Z,368
2023-02-04T10:15:19.793Z,353
2023-02-04T10:16:19.158Z,359
2023-02-04T10:18:20.028Z,358
2023-02-04T10:19:19.820Z,362
2023-02-04T10:20:19.433Z,363
2023-02-04T10:21:19.810Z,367
2023-02-04T10:22:19.672Z,369
2023-02-04T10:23:19.717Z,361
2023-02-04T10:24:20.235Z,358
2023-02-04T10:26:19.840Z,354
2023-02-04T10:27:19.277Z,359
2023-02-04T10:28:19.794Z,356
2023-02-04T10:29:19.135Z,362
2023-02-04T10:30:19.749Z,363
2023-02-04T10:31:19.563Z,362
2023-02-04T10:33:19.199Z,366
2023-02-04T10:34:19.490Z,367
2023-02-04T10:35:19.682Z,364
2023-02-04T10:37:18.828Z,365
2023-02-04T10:38:18.991Z,356
2023-02-04T10:39:19.836Z,366
2023-02-04T10:40:19.564Z,360
2023-02-04T10:41:18.982Z,360
2023-02-04T10:43:18.863Z,360
2023-02-04T10:44:18.810Z,359
2023-02-04T10:47:18.689Z,362
2023-02-04T10:48:19.204Z,371
2023-02-04T10:49:18.802Z,368
2023-02-04T10:50:19.302Z,369
2023-02-04T10:51:18.165Z,369
2023-02-04T10:52:18.500Z,377
2023-02-04T10:53:19.409Z,362
2023-02-04T10:54:19.358Z,347
2023-02-04T10:55:20.041Z,346
2023-02-04T10:56:19.569Z,342
2023-02-04T10:58:19.298Z,355
2023-02-04T10:59:19.579Z,356
2023-02-04T11:00:19.757Z,351
2023-02-04T11:01:19.435Z,349
2023-02-04T11:02:19.051Z,346
2023-02-04T11:04:19.712Z,343
2023-02-04T11:05:19.460Z,346
2023-02-04T11:06:19.173Z,355
2023-02-04T11:07:19.383Z,371
2023-02-04T11:09:18.859Z,360
2023-02-04T11:10:19.543Z,357
2023-02-04T11:11:19.789Z,352
2023-02-04T11:12:19.296Z,358
2023-02-04T11:13:19.065Z,357
2023-02-04T11:14:19.325Z,363
2023-02-04T11:15:19.235Z,357
2023-02-04T11:16:19.689Z,356
2023-02-04T11:17:18.716Z,357
2023-02-04T11:18:18.904Z,356
2023-02-04T11:19:18.998Z,359
2023-02-04T11:20:19.418Z,373
2023-02-04T11:22:19.482Z,367
2023-02-04T11:23:19.645Z,366
2023-02-04T11:24:19.136Z,364
2023-02-04T11:25:19.848Z,358
2023-02-04T11:26:20.202Z,361
2023-02-04T11:27:20.037Z,359
2023-02-04T11:28:19.437Z,356
2023-02-04T11:29:19.485Z,355
2023-02-04T11:30:19.987Z,370
2023-02-04T11:31:19.440Z,366
2023-02-04T11:32:21.378Z,366
2023-02-04T11:33:18.851Z,357
2023-02-04T11:34:19.468Z,363
2023-02-04T11:35:19.735Z,359
2023-02-04T11:37:18.895Z,355
2023-02-04T11:38:18.772Z,364
2023-02-04T11:39:18.976Z,363
2023-02-04T11:40:19.344Z,368
2023-02-04T11:41:19.832Z,358
2023-02-04T11:42:18.939Z,357
2023-02-04T11:45:19.164Z,372
2023-02-04T11:46:18.279Z,372
2023-02-04T11:47:19.224Z,363
2023-02-04T11:49:18.601Z,364
2023-02-04T11:50:19.549Z,354
2023-02-04T11:51:19.580Z,352
2023-02-04T11:53:19.011Z,359
2023-02-04T11:54:19.478Z,353
2023-02-04T11:55:19.754Z,362
2023-02-04T11:56:19.877Z,359
2023-02-04T11:57:19.396Z,348
2023-02-04T11:58:19.506Z,347
2023-02-04T11:59:19.298Z,351
2023-02-04T12:00:25.973Z,365
2023-02-04T12:03:20.047Z,347
2023-02-04T12:04:19.483Z,355
2023-02-04T12:05:19.229Z,351
2023-02-04T12:06:19.457Z,361
2023-02-04T12:09:19.474Z,361
2023-02-04T12:10:19.808Z,365
2023-02-04T12:11:19.024Z,357
2023-02-04T12:12:19.595Z,355
2023-02-04T12:13:19.317Z,358
2023-02-04T12:14:33.452Z,358
2023-02-04T12:15:19.748Z,354
2023-02-04T12:16:19.756Z,360
2023-02-04T12:17:19.856Z,368
2023-02-04T12:18:19.741Z,359
2023-02-04T12:20:20.062Z,364
2023-02-04T12:21:19.157Z,358
2023-02-04T12:22:20.241Z,361
2023-02-04T12:23:19.869Z,363
2023-02-04T12:24:38.536Z,353
2023-02-04T12:25:19.370Z,365
2023-02-04T12:26:19.172Z,365
2023-02-04T12:27:19.371Z,366
2023-02-04T12:28:19.984Z,370
2023-02-04T12:29:19.025Z,370
2023-02-04T12:30:20.103Z,362
2023-02-04T12:31:19.735Z,360
2023-02-04T12:32:19.590Z,366
2023-02-04T12:34:18.940Z,358
2023-02-04T12:35:19.288Z,348
2023-02-04T12:36:19.880Z,356
2023-02-04T12:37:19.440Z,349
2023-02-04T12:39:19.612Z,369
2023-02-04T12:40:42.114Z,367
2023-02-04T12:41:20.064Z,365
2023-02-04T12:42:20.062Z,356
2023-02-04T12:44:19.693Z,354
2023-02-04T12:45:20.559Z,360
2023-02-04T12:46:19.476Z,364
2023-02-04T12:47:19.401Z,360
2023-02-04T12:48:19.381Z,354
2023-02-04T12:49:20.028Z,352
2023-02-04T12:50:28.386Z,358
2023-02-04T12:51:20.305Z,355
2023-02-04T12:52:19.819Z,360
2023-02-04T12:53:20.210Z,353
2023-02-04T12:54:19.888Z,346
2023-02-04T12:55:19.950Z,352
2023-02-04T12:56:19.339Z,355
2023-02-04T12:57:19.078Z,355
2023-02-04T12:58:19.374Z,356
2023-02-04T12:59:19.412Z,367
2023-02-04T13:00:20.320Z,352
2023-02-04T13:03:19.378Z,363
2023-02-04T13:05:19.648Z,354
2023-02-04T13:06:20.146Z,350
2023-02-04T13:08:19.708Z,349
2023-02-04T13:09:20.307Z,355
2023-02-04T13:10:19.385Z,358
2023-02-04T13:11:19.007Z,368
2023-02-04T13:12:19.935Z,355
2023-02-04T13:13:19.955Z,353
2023-02-04T13:14:19.950Z,350
2023-02-04T13:15:20.098Z,344
2023-02-04T13:16:19.665Z,348
2023-02-04T13:18:19.614Z,343
2023-02-04T13:20:19.985Z,351
2023-02-04T13:21:19.490Z,351
2023-02-04T13:22:19.957Z,357
2023-02-04T13:23:20.212Z,355
2023-02-04T13:24:19.216Z,348
2023-02-04T13:26:19.519Z,345
2023-02-04T13:28:20.444Z,346
2023-02-04T13:29:19.544Z,349
2023-02-04T13:30:19.911Z,361
2023-02-04T13:32:20.282Z,346
2023-02-04T13:35:19.914Z,356
2023-02-04T13:36:19.864Z,352
2023-02-04T13:37:20.286Z,353
2023-02-04T13:38:19.496Z,354
2023-02-04T13:39:19.648Z,364
2023-02-04T13:40:18.778Z,368
2023-02-04T13:42:19.075Z,366
2023-02-04T13:46:19.790Z,358
2023-02-04T13:47:19.571Z,352
2023-02-04T13:48:20.234Z,357
2023-02-04T13:49:19.846Z,362
2023-02-04T13:50:19.545Z,360
2023-02-04T13:52:19.456Z,357
2023-02-04T13:53:19.953Z,354
2023-02-04T13:54:20.228Z,349
2023-02-04T13:55:19.406Z,358
2023-02-04T13:56:19.284Z,356
2023-02-04T13:57:19.988Z,350
2023-02-04T13:58:19.249Z,357
2023-02-04T13:59:20.960Z,347
2023-02-04T14:00:20.835Z,348
2023-02-04T14:01:19.784Z,356
2023-02-04T14:02:20.074Z,361
2023-02-04T14:03:19.638Z,351
2023-02-04T14:04:20.176Z,354
2023-02-04T14:05:19.985Z,359
2023-02-04T14:06:19.138Z,361
2023-02-04T14:10:20.184Z,348
2023-02-04T14:11:20.110Z,347
2023-02-04T14:12:19.808Z,351
2023-02-04T14:13:19.662Z,352
2023-02-04T14:15:25.254Z,357
2023-02-04T14:19:19.537Z,358
2023-02-04T14:20:20.288Z,366
2023-02-04T14:21:19.630Z,365
2023-02-04T14:23:19.565Z,361
2023-02-04T14:24:19.650Z,367
2023-02-04T14:25:20.131Z,366
2023-02-04T14:27:27.686Z,363
2023-02-04T14:29:19.291Z,366
2023-02-04T14:31:19.683Z,344
2023-02-04T14:32:19.678Z,345
2023-02-04T14:33:19.527Z,352
2023-02-04T14:34:18.840Z,348
2023-02-04T14:36:19.214Z,345
2023-02-04T14:38:19.422Z,362
2023-02-04T14:39:19.692Z,361
2023-02-04T14:40:20.353Z,359
2023-02-04T14:42:19.488Z,354
2023-02-04T14:43:19.872Z,341
2023-02-04T14:44:20.235Z,346
2023-02-04T14:45:19.978Z,351
2023-02-04T14:47:19.369Z,357
2023-02-04T14:49:18.901Z,360
2023-02-04T14:50:19.309Z,356
2023-02-04T14:51:19.901Z,359
2023-02-04T14:52:19.644Z,358
2023-02-04T14:53:20.068Z,353
2023-02-04T14:54:19.138Z,353
2023-02-04T14:56:19.832Z,348
2023-02-04T14:57:20.604Z,334
2023-02-04T14:58:19.898Z,335
2023-02-04T15:00:20.457Z,354
2023-02-04T15:01:20.151Z,352
2023-02-04T15:02:19.440Z,351
2023-02-04T15:04:19.817Z,357
2023-02-04T15:05:19.780Z,360
2023-02-04T15:06:20.041Z,361
2023-02-04T15:07:20.132Z,357
2023-02-04T15:08:19.997Z,356
2023-02-04T15:09:20.510Z,364
2023-02-04T15:10:20.216Z,360
2023-02-04T15:11:20.110Z,357
2023-02-04T15:12:20.325Z,345
2023-02-04T15:14:19.593Z,356
2023-02-04T15:15:20.159Z,353
2023-02-04T15:16:20.612Z,362
2023-02-04T15:17:20.231Z,359
2023-02-04T15:18:19.799Z,357
2023-02-04T15:19:20.597Z,356
2023-02-04T15:20:20.736Z,361
2023-02-04T15:21:19.764Z,366
2023-02-04T15:22:20.448Z,361
2023-02-04T15:23:19.602Z,357
2023-02-04T15:24:19.780Z,358
2023-02-04T15:25:19.687Z,361
2023-02-04T15:26:19.635Z,359
2023-02-04T15:28:20.175Z,363
2023-02-04T15:29:19.696Z,366
2023-02-04T15:32:19.208Z,362
2023-02-04T15:34:20.233Z,370
2023-02-04T15:35:20.711Z,360
2023-02-04T15:36:19.476Z,365
2023-02-04T15:38:19.197Z,356
2023-02-04T15:39:19.611Z,353
2023-02-04T15:40:19.426Z,355
2023-02-04T15:41:20.579Z,365
2023-02-04T15:43:19.188Z,355
2023-02-04T15:44:19.930Z,357
2023-02-04T15:45:20.110Z,360
2023-02-04T15:46:19.874Z,362
2023-02-04T15:47:20.181Z,359
2023-02-04T15:48:19.937Z,362
2023-02-04T15:51:19.478Z,357
2023-02-04T15:52:24.796Z,360
2023-02-04T15:53:19.945Z,366
2023-02-04T15:56:20.040Z,369
2023-02-04T15:57:19.610Z,361
2023-02-04T15:59:19.845Z,348
2023-02-04T16:00:21.172Z,354
2023-02-04T16:01:19.647Z,362
2023-02-04T16:02:19.699Z,363
2023-02-04T16:03:20.485Z,356
2023-02-04T16:04:21.000Z,345
2023-02-04T16:05:20.152Z,348
2023-02-04T16:06:20.262Z,349
2023-02-04T16:07:19.694Z,356
2023-02-04T16:08:19.625Z,363
2023-02-04T16:10:19.550Z,348
2023-02-04T16:11:19.472Z,345
2023-02-04T16:12:19.356Z,351
2023-02-04T16:13:19.387Z,355
2023-02-04T16:15:20.179Z,353
2023-02-04T16:16:20.558Z,354
2023-02-04T16:19:19.773Z,354
2023-02-04T16:21:19.868Z,350
2023-02-04T16:22:19.644Z,356
2023-02-04T16:23:19.987Z,358
2023-02-04T16:24:19.820Z,366
2023-02-04T16:25:19.908Z,375
2023-02-04T16:26:19.724Z,363
2023-02-04T16:27:20.393Z,356
2023-02-04T16:28:20.298Z,352
2023-02-04T16:30:20.607Z,356
2023-02-04T16:31:20.644Z,365
2023-02-04T16:33:19.956Z,355
2023-02-04T16:35:20.288Z,359
2023-02-04T16:36:20.120Z,356
2023-02-04T16:37:20.075Z,366
2023-02-04T16:38:20.191Z,372
2023-02-04T16:39:19.410Z,376
2023-02-04T16:40:20.472Z,365
2023-02-04T16:41:20.039Z,363
2023-02-04T16:42:20.032Z,351
2023-02-04T16:43:19.977Z,347
2023-02-04T16:44:19.739Z,354
2023-02-04T16:45:20.550Z,364
2023-02-04T16:46:19.652Z,367
2023-02-04T16:47:19.695Z,368
2023-02-04T16:48:19.584Z,372
2023-02-04T16:49:19.814Z,373
2023-02-04T16:51:19.328Z,374
2023-02-04T16:52:27.837Z,372
2023-02-04T16:53:19.560Z,367
2023-02-04T16:54:26.888Z,374
2023-02-04T16:55:19.451Z,372
2023-02-04T16:56:18.803Z,375
2023-02-04T16:59:19.385Z,375
2023-02-04T17:00:19.940Z,369
2023-02-04T17:01:19.344Z,367
2023-02-04T17:02:34.807Z,373
2023-02-04T17:03:18.803Z,371
2023-02-04T17:06:33.387Z,360
2023-02-04T17:07:19.858Z,359
2023-02-04T17:09:19.200Z,371
2023-02-04T17:10:19.318Z,370
2023-02-04T17:11:19.499Z,367
2023-02-04T17:12:19.428Z,361
2023-02-04T17:13:19.287Z,357
2023-02-04T17:15:19.549Z,366
2023-02-04T17:16:20.082Z,361
2023-02-04T17:17:19.960Z,362
2023-02-04T17:18:19.432Z,373
2023-02-04T17:19:20.158Z,366
2023-02-04T17:20:19.941Z,369
2023-02-04T17:22:19.704Z,369
2023-02-04T17:23:19.817Z,374
2023-02-04T17:24:20.277Z,365
2023-02-04T17:25:19.758Z,362
2023-02-04T17:26:19.728Z,367
2023-02-04T17:27:19.933Z,364
2023-02-04T17:28:19.831Z,369
2023-02-04T17:29:19.375Z,366
2023-02-04T17:30:20.471Z,372
2023-02-04T17:31:19.204Z,361
2023-02-04T17:33:19.407Z,365
2023-02-04T17:34:20.294Z,370
2023-02-04T17:35:20.254Z,378
2023-02-04T17:36:19.480Z,368
2023-02-04T17:38:19.615Z,378
2023-02-04T17:39:19.793Z,388
2023-02-04T17:40:20.450Z,381
2023-02-04T17:44:19.156Z,371
2023-02-04T17:45:20.653Z,376
2023-02-04T17:47:19.944Z,367
2023-02-04T17:48:19.282Z,370
2023-02-04T17:49:19.630Z,377
2023-02-04T17:50:20.116Z,367
2023-02-04T17:51:19.517Z,371
2023-02-04T17:53:20.221Z,382
2023-02-04T17:54:19.599Z,378
2023-02-04T17:55:19.826Z,361
2023-02-04T17:56:20.097Z,368
2023-02-04T17:57:19.993Z,376
2023-02-04T17:58:19.731Z,375
2023-02-04T17:59:19.250Z,378
2023-02-04T18:00:21.303Z,371
2023-02-04T18:01:19.878Z,380
2023-02-04T18:02:19.698Z,385
2023-02-04T18:03:19.479Z,373
2023-02-04T18:04:20.554Z,375
2023-02-04T18:06:19.255Z,374
2023-02-04T18:07:19.770Z,380
2023-02-04T18:09:20.000Z,373
2023-02-04T18:10:20.179Z,381
2023-02-04T18:11:19.477Z,388